Date,TemperatureHighF,TemperatureAvgF,TemperatureLowF,DewpointHighF,DewpointAvgF,DewpointLowF,HumidityHigh,HumidityAvg,HumidityLow,PressureMaxIn,PressureMinIn,WindSpeedMaxMPH,WindSpeedAvgMPH,GustSpeedMaxMPH,PrecipitationSumIn
2013-1-1,68.5,44.4,49.3,67.0,17.6,-99.9,95,65,75,30.15,29.82,14,-230,22,0.05
2013-1-2,49.2,32.8,39.8,43.0,7.9,-99.9,93,68,76,30.28,30.13,11,-220,13,0.20
2013-1-3,49.7,37.3,41.9,39.0,9.8,-99.9,88,55,49,30.37,30.25,8,-186,14,0.00
2013-1-4,50.0,38.1,45.2,40.0,9.5,-99.9,75,54,61,30.41,30.31,13,-203,13,0.00
2013-1-5,49.1,37.1,43.5,47.0,13.3,-99.9,94,69,74,30.33,30.21,10,-208,13,0.07
2013-1-6,64.1,43.7,39.5,48.0,22.5,-99.9,96,66,45,30.33,30.22,8,-145,13,0.00
2013-1-7,63.6,45.1,39.3,54.0,27.4,-99.9,96,74,67,30.28,29.97,11,-138,11,0.02
2013-1-8,68.1,48.7,54.1,67.0,24.8,-99.9,99,74,93,29.97,29.73,12,-228,19,0.16
2013-1-9,67.5,49.3,54.1,67.0,27.4,-99.9,97,74,85,30.00,29.78,9,-202,15,0.29
2013-1-10,70.3,49.8,49.5,54.0,28.3,-99.9,97,66,46,30.06,29.98,9,-146,14,0.00
2013-1-11,78.5,55.0,50.6,70.0,34.7,-99.9,98,74,72,30.01,29.77,14,-173,20,0.00
2013-1-12,80.7,61.2,69.2,72.0,42.0,-99.9,97,75,73,29.80,29.59,20,-160,23,0.00
2013-1-13,71.1,43.1,48.7,70.0,11.8,-99.9,96,52,48,30.07,29.67,13,-221,20,0.00
2013-1-14,48.9,37.9,42.0,42.0,15.9,-99.9,94,65,65,30.16,30.04,7,-160,14,0.00
2013-1-15,44.1,33.3,41.1,43.0,10.4,-99.9,97,72,80,30.20,30.01,10,-206,19,0.03
2013-1-16,57.6,36.7,35.5,36.0,-0.6,-99.9,80,38,21,30.36,30.18,17,-204,22,0.00
2013-1-17,67.3,44.4,33.1,40.0,15.9,-99.9,86,47,31,30.43,30.29,12,-133,16,0.00
2013-1-18,65.5,45.1,38.9,50.0,20.9,-99.9,91,60,47,30.48,30.29,7,-156,10,0.00
2013-1-19,73.4,51.7,45.5,55.0,33.1,-99.9,97,67,43,30.28,30.11,7,-105,10,0.00
2013-1-20,73.3,51.1,46.2,58.0,28.8,-99.9,98,65,48,30.22,30.06,8,-156,11,0.00
2013-1-21,72.7,52.0,50.9,60.0,28.1,-99.9,97,62,37,30.19,30.07,8,-155,12,0.00
2013-1-22,73.0,51.0,48.5,59.0,27.9,-99.9,97,66,50,30.26,30.14,10,-168,15,0.00
2013-1-23,78.4,56.1,51.7,65.0,36.4,-99.9,100,71,59,30.29,30.17,13,-145,16,0.00
2013-1-24,82.3,57.3,58.0,67.0,35.1,-99.9,98,68,51,30.26,30.08,13,-165,18,0.00
2013-1-25,81.6,60.3,56.9,68.0,41.6,-99.9,98,72,60,30.13,29.99,13,-131,19,0.00
2013-1-26,79.3,59.2,61.7,66.0,37.7,-99.9,98,67,47,30.10,29.99,15,-144,22,0.01
2013-1-27,76.5,58.8,62.3,70.0,39.0,-99.9,96,74,77,30.05,29.92,19,-162,24,0.00
2013-1-28,78.2,59.8,69.7,70.0,39.2,-99.9,95,73,75,30.03,29.85,18,-169,25,0.00
2013-1-29,88.9,66.7,68.1,70.0,45.4,-99.9,95,64,40,29.86,29.52,26,-118,28,0.00
2013-1-30,68.1,49.8,45.7,43.0,1.5,-99.9,43,21,10,30.21,29.72,24,-161,31,0.00
2013-1-31,71.2,50.1,37.1,46.0,18.0,-99.9,73,39,16,30.30,30.17,12,-96,18,0.00
2013-2-1,72.2,54.7,50.5,53.0,29.6,-99.9,89,54,31,30.31,30.17,11,-114,17,0.00
2013-2-2,77.7,57.4,53.7,61.0,38.7,-99.9,94,67,51,30.20,30.11,7,-114,13,0.00
2013-2-3,73.7,54.0,53.6,61.0,32.3,-99.9,98,67,51,30.26,29.99,8,-157,12,0.00
2013-2-4,80.1,57.8,58.7,65.0,35.5,-99.9,93,66,57,29.99,29.75,14,-163,20,0.00
2013-2-5,88.0,61.7,58.1,69.0,39.5,-99.9,98,66,30,29.92,29.80,10,-144,12,0.00
2013-2-6,70.4,56.6,61.7,70.0,40.2,-99.9,98,80,85,29.97,29.77,10,-145,14,0.40
2013-2-7,73.7,54.4,59.3,68.0,34.5,-99.9,98,76,82,29.95,29.84,5,-180,6,0.00
2013-2-8,72.9,54.5,55.3,63.0,33.7,-99.9,98,66,48,30.16,29.96,8,-136,12,0.00
2013-2-9,73.5,58.2,59.9,70.0,41.4,-99.9,95,78,87,30.03,29.75,12,-142,26,0.02
2013-2-10,79.6,60.5,64.3,71.0,36.0,-99.9,97,59,37,29.89,29.70,14,-143,21,0.00
2013-2-11,65.7,52.3,55.8,59.0,32.3,-99.9,97,69,59,29.94,29.85,9,-144,15,0.00
2013-2-12,68.3,51.3,55.1,59.0,33.9,-99.9,100,77,70,29.97,29.78,11,-144,15,0.01
2013-2-13,63.5,47.3,43.6,57.0,20.2,-99.9,93,52,40,30.15,29.95,11,-151,15,0.00
2013-2-14,68.7,51.6,38.3,50.0,32.1,-99.9,96,61,30,30.11,30.00,6,-72,12,0.00
2013-2-15,72.2,53.2,49.1,55.0,29.0,-99.9,95,57,44,30.29,30.02,10,-134,14,0.00
2013-2-16,66.8,49.8,43.8,43.0,20.0,-99.9,73,41,24,30.45,30.24,10,-92,18,0.00
2013-2-17,71.3,52.5,40.2,58.0,29.2,-99.9,90,58,42,30.25,29.97,19,-122,26,0.00
2013-2-18,81.6,59.0,64.6,67.0,34.7,-99.9,89,62,59,29.97,29.79,13,-169,23,0.00
2013-2-19,67.4,53.6,59.7,62.0,30.0,-99.9,94,60,47,30.17,29.95,11,-143,18,0.00
2013-2-20,74.4,58.9,63.0,68.0,39.4,-99.9,92,72,79,29.99,29.64,18,-150,26,0.00
2013-2-21,81.1,63.1,65.7,70.0,39.9,-99.9,95,60,47,29.77,29.53,15,-131,26,0.00
2013-2-22,72.2,57.7,57.4,53.0,29.8,-99.9,75,47,32,29.91,29.76,11,-111,16,0.00
2013-2-23,70.1,53.0,50.1,52.0,28.9,-99.9,90,54,45,30.00,29.84,10,-113,13,0.00
2013-2-24,66.9,54.0,46.5,65.0,43.2,-99.9,98,85,82,29.87,29.57,5,-92,9,0.01
2013-2-25,71.4,54.3,53.5,66.0,11.8,-99.9,98,34,10,29.86,29.50,27,-158,43,0.00
2013-2-26,75.4,53.7,39.1,46.0,21.3,-99.9,81,38,12,29.98,29.82,8,-70,15,0.00
2013-2-27,75.6,55.0,47.6,53.0,25.7,-99.9,94,46,17,30.16,29.84,17,-90,23,0.00
2013-2-28,61.7,48.6,44.1,31.0,16.2,-99.9,51,34,24,30.28,30.15,17,-80,18,0.00
2013-3-1,74.8,53.0,41.8,45.0,19.7,-99.9,74,37,12,30.25,30.08,10,-81,13,0.00
2013-3-2,67.2,51.1,42.9,43.0,21.3,-99.9,82,42,23,30.39,30.21,14,-80,23,0.00
2013-3-3,76.5,53.8,37.8,54.0,25.6,-99.9,77,47,26,30.26,29.97,15,-111,23,0.00
2013-3-4,92.1,64.4,57.4,61.0,40.8,-99.9,88,57,21,29.96,29.69,14,-91,24,0.00
2013-3-5,69.9,55.4,49.5,62.0,21.7,-99.9,93,42,20,30.28,29.75,16,-109,24,0.00
2013-3-6,64.6,49.3,39.2,45.0,21.8,-99.9,85,44,24,30.41,30.20,8,-63,14,0.00
2013-3-7,66.7,37.7,45.7,58.0,9.4,-99.9,92,65,74,30.20,30.10,2,-256,4,0.00
2013-3-9,77.5,69.9,69.1,68.0,60.2,-99.9,89,78,71,29.70,0.00,26,-26,31,0.00
2013-3-10,78.4,67.8,58.0,58.0,40.0,-99.9,88,41,22,30.04,29.77,15,-10,20,0.00
2013-3-11,72.2,53.7,45.5,42.0,16.3,-99.9,77,33,16,30.14,29.97,16,-102,20,0.00
2013-3-12,79.4,55.8,42.6,50.0,28.3,-99.9,78,48,26,30.19,30.04,10,-106,15,0.00
2013-3-13,73.3,59.9,48.1,56.0,49.0,40.0,95,71,31,30.37,30.19,11,3,15,0.00
2013-3-14,77.5,61.5,50.6,61.0,53.9,49.0,97,78,44,30.34,30.23,11,2,17,0.00
2013-3-15,81.2,65.1,48.2,62.0,55.2,47.0,97,74,32,30.23,30.00,15,5,23,0.00
2013-3-16,80.1,68.5,58.4,65.0,61.8,57.0,97,80,57,30.02,29.75,22,6,29,0.00
2013-3-17,85.9,72.6,63.5,69.0,65.9,62.0,96,81,55,29.80,29.61,13,6,18,0.00
2013-3-18,92.1,75.9,67.6,70.0,67.1,64.0,94,77,39,29.83,29.66,8,3,19,0.00
2013-3-19,81.0,69.6,60.1,69.0,64.7,56.0,95,85,66,29.94,29.77,8,3,14,0.00
2013-3-20,77.4,70.2,62.8,68.0,57.3,44.0,93,66,44,30.10,29.84,16,5,18,0.00
2013-3-21,74.8,67.4,57.6,66.0,60.1,53.0,91,78,61,30.00,29.63,14,5,20,0.00
2013-3-22,81.2,73.8,69.7,71.0,69.0,66.0,93,85,71,29.68,29.58,12,5,16,0.00
2013-3-23,87.2,75.0,66.7,71.0,68.8,64.0,96,83,51,29.65,29.53,9,2,13,0.00
2013-3-24,68.1,62.8,52.8,65.0,39.9,21.0,98,52,17,30.09,29.62,18,6,26,0.00
2013-3-25,64.3,53.4,42.5,31.0,26.5,15.0,60,39,15,30.30,30.09,10,3,14,0.00
2013-3-26,67.0,54.6,41.6,36.0,31.2,28.0,60,43,24,30.43,30.29,8,2,16,0.00
2013-3-27,68.1,59.4,43.6,57.0,46.9,33.0,78,64,52,30.31,30.15,12,4,18,0.00
2013-3-28,74.6,68.2,64.0,61.0,59.5,56.0,87,74,62,30.16,30.08,14,5,20,0.00
2013-3-29,79.2,69.8,61.2,65.0,62.0,59.0,93,77,54,30.13,30.02,15,5,20,0.00
2013-3-30,83.9,71.9,63.0,69.0,65.4,61.0,94,81,57,30.06,29.88,15,5,18,0.00
2013-3-31,86.3,74.3,67.5,70.0,67.6,65.0,94,81,57,29.92,29.74,12,5,20,0.00
2013-4-1,78.5,71.5,65.3,69.0,67.2,64.0,96,86,69,29.98,29.87,11,3,15,0.00
2013-4-2,79.6,73.1,68.9,71.0,69.5,67.0,95,88,75,29.94,29.73,11,3,12,0.03
2013-4-3,75.5,66.5,55.9,70.0,59.5,51.0,94,79,61,30.08,29.76,13,5,22,0.00
2013-4-4,74.6,60.7,53.2,51.0,48.2,45.0,85,66,36,30.15,30.01,11,6,19,0.00
2013-4-5,70.0,54.8,45.3,55.0,46.6,42.0,88,75,49,30.22,30.04,6,2,14,0.00
2013-4-14,88.3,75.2,65.6,71.0,62.5,-99.9,96,76,56,29.72,29.67,6,2,11,0.00
2013-5-12,69.5,69.0,68.7,64.0,64.0,64.0,86,84,83,30.13,30.12,0,0,4,1.98
2013-5-13,81.9,72.0,62.7,67.0,63.2,60.0,95,76,49,30.22,30.12,7,2,12,0.00
2013-5-14,85.2,75.1,66.7,73.0,68.9,64.0,94,82,61,30.18,30.01,17,4,18,0.00
2013-5-15,81.2,75.1,72.5,75.0,72.0,70.0,97,90,78,30.05,29.84,20,6,24,0.10
2013-5-16,88.3,78.6,71.4,77.0,73.1,70.0,94,83,66,29.85,29.68,16,7,21,0.00
2013-5-17,90.9,80.6,73.2,77.0,73.5,70.0,95,80,53,29.86,29.73,15,6,20,0.00
2013-5-18,90.0,80.8,75.3,75.0,72.4,67.0,93,78,47,29.87,29.78,20,8,26,0.00
2013-5-19,89.5,80.9,75.7,75.0,73.5,70.0,94,79,53,29.82,29.68,18,8,25,0.00
2013-5-20,88.5,80.7,76.1,75.0,74.2,73.0,93,81,62,29.79,29.67,16,7,23,0.00
2013-5-21,89.2,81.1,76.4,76.0,75.1,74.0,93,83,64,29.75,29.65,12,6,22,0.00
2013-5-22,86.0,80.8,76.5,77.0,75.9,74.0,96,85,72,29.84,29.73,9,3,11,0.14
2013-5-23,89.0,81.3,75.5,77.0,75.8,74.0,95,83,67,29.95,29.81,10,3,15,0.00
2013-5-24,88.0,79.7,72.3,76.0,74.4,69.0,96,84,63,30.04,29.92,14,4,18,0.06
2013-5-25,83.2,78.1,71.5,78.0,75.2,69.0,99,91,82,30.07,29.96,10,5,19,1.58
2013-5-26,87.0,79.7,75.4,75.0,73.5,71.0,95,82,62,30.03,29.92,10,5,17,0.00
2013-5-27,88.0,80.3,74.6,77.0,74.1,71.0,96,82,60,29.97,29.81,19,6,20,0.00
2013-5-28,87.4,81.1,77.0,76.0,74.5,74.0,91,81,67,29.87,29.74,17,9,25,0.00
2013-5-29,85.8,80.5,77.6,76.0,75.0,74.0,91,83,73,29.80,29.68,15,7,26,0.00
2013-5-30,89.9,82.5,77.1,77.0,75.9,75.0,93,81,64,29.79,29.71,14,6,20,0.00
2013-5-31,93.6,83.4,77.1,78.0,76.6,75.0,95,81,58,29.83,29.73,13,5,18,0.00
2013-6-1,94.6,84.4,79.0,79.0,76.7,75.0,91,79,57,29.85,29.74,13,6,18,0.00
2013-6-2,91.6,81.3,73.6,79.0,75.4,71.0,95,83,58,29.95,29.81,6,2,14,0.18
2013-6-3,91.9,79.7,71.8,76.0,72.7,71.0,98,81,52,29.91,29.80,9,1,11,0.00
2013-6-4,91.3,83.8,72.6,76.0,72.6,70.0,98,70,53,29.85,29.76,6,2,10,0.00
2013-6-5,91.3,81.1,70.7,77.0,73.0,69.0,97,78,54,29.82,29.74,9,2,12,0.00
2013-6-6,94.5,83.5,73.5,77.0,74.9,72.0,97,77,52,29.81,29.69,5,2,11,0.00
2013-6-7,88.8,78.4,69.2,76.0,72.8,68.0,94,83,62,29.88,29.80,7,2,10,0.59
2013-6-8,90.7,77.7,68.2,78.0,72.4,67.0,96,85,59,29.87,29.75,10,2,15,0.02
2013-6-9,92.8,82.3,76.7,80.0,76.0,68.0,95,82,58,29.89,29.77,10,3,20,0.00
2013-6-10,91.7,82.7,74.5,79.0,75.7,73.0,98,81,59,29.91,29.86,13,2,13,0.00
2013-6-11,91.0,81.6,74.5,79.0,75.2,73.0,96,81,59,29.97,29.90,10,2,16,0.14
2013-6-12,93.6,84.2,77.5,80.0,76.2,69.0,95,78,46,29.98,29.90,14,4,18,0.00
2013-6-13,90.4,82.8,78.3,80.0,77.8,75.0,94,85,68,29.98,29.87,9,3,16,0.01
2013-6-14,91.5,83.3,78.5,80.0,77.9,77.0,94,84,66,29.93,29.82,11,3,16,0.00
2013-6-15,94.0,84.8,77.7,78.0,76.1,72.0,96,77,50,29.92,29.84,11,4,17,0.00
2013-6-16,94.0,84.2,75.9,79.0,76.6,74.0,96,79,59,29.95,29.87,13,4,22,0.00
2013-6-17,95.0,84.9,77.9,79.0,76.5,74.0,95,78,56,29.91,29.81,13,5,19,0.00
2013-6-18,95.9,84.7,75.2,78.0,75.7,72.0,97,76,49,29.92,29.82,14,4,17,0.00
2013-6-19,95.1,84.7,76.0,77.0,75.2,73.0,95,75,51,29.96,29.85,15,5,21,0.00
2013-6-20,93.3,84.3,76.6,78.0,76.2,74.0,96,78,55,29.99,29.89,10,4,21,0.00
2013-6-21,94.7,84.1,77.0,78.0,75.3,70.0,95,77,46,30.02,29.94,13,4,18,0.00
2013-6-22,84.5,78.5,75.8,78.0,76.1,74.0,97,92,76,29.97,29.92,6,2,11,0.00
2013-6-23,94.1,84.4,75.4,77.0,74.8,71.0,94,75,48,29.93,29.85,12,5,22,0.00
2013-6-24,93.7,85.0,78.5,78.0,75.9,73.0,93,76,52,29.96,29.88,15,6,27,0.00
2013-6-25,93.5,84.7,77.9,78.0,75.5,73.0,92,75,54,29.95,29.85,19,7,23,0.00
2013-6-26,96.6,85.4,78.1,78.0,76.4,74.0,93,76,50,29.92,29.85,18,6,20,0.00
2013-6-27,97.3,84.5,74.7,77.0,75.4,73.0,96,76,47,29.95,29.87,13,4,17,0.00
2013-6-28,97.7,85.9,75.1,77.0,74.4,67.0,96,71,37,29.94,29.78,11,3,15,0.00
2013-6-29,107.1,89.4,75.5,76.0,71.9,68.0,92,61,29,29.83,29.66,10,2,14,0.00
2013-6-30,84.7,78.5,71.1,73.0,71.1,69.0,98,79,60,29.90,29.72,18,3,24,0.41
2013-7-1,98.0,83.5,72.6,73.0,68.9,62.0,96,66,31,29.92,29.80,7,1,12,0.00
2013-7-2,96.0,83.9,76.4,75.0,66.3,54.0,88,59,26,29.99,29.88,9,2,15,0.00
2013-7-3,95.5,81.5,70.4,73.0,67.2,61.0,90,65,32,29.97,29.85,11,2,17,0.00
2013-7-4,93.5,81.7,69.5,75.0,70.6,62.0,98,72,36,29.93,29.84,7,2,15,0.00
2013-7-5,94.6,82.2,70.5,76.0,71.7,65.0,97,73,39,29.92,29.80,8,2,17,0.00
2013-7-6,94.1,81.5,71.5,78.0,73.7,70.0,96,79,53,29.87,29.78,9,2,17,0.00
2013-7-7,93.6,83.6,76.4,77.0,74.6,72.0,95,76,52,29.93,29.82,13,3,21,0.01
2013-7-8,91.9,82.4,74.6,78.0,75.6,72.0,95,81,59,30.05,29.93,10,3,19,0.11
2013-7-9,94.0,84.9,75.6,80.0,76.3,73.0,98,77,57,30.07,29.97,10,3,15,0.00
2013-7-10,93.4,87.2,78.2,79.0,75.4,73.0,96,69,55,30.03,29.90,10,3,15,0.00
2013-7-11,95.7,85.0,74.8,78.0,74.3,71.0,96,73,46,29.96,29.85,12,3,16,0.00
2013-7-12,95.7,87.8,74.6,77.0,73.7,70.0,97,65,46,29.90,29.85,10,3,16,0.00
2013-7-13,96.6,85.8,74.0,77.0,72.5,68.0,96,68,41,29.92,29.82,8,2,14,0.00
2013-7-14,96.5,89.0,81.6,77.0,73.4,69.0,81,62,42,29.86,29.78,13,6,19,0.00
2013-7-15,92.4,84.0,78.2,77.0,75.3,74.0,90,76,56,29.92,29.81,12,5,19,0.23
2013-7-16,86.5,79.0,74.0,78.0,75.4,73.0,98,89,71,30.00,29.89,12,3,23,1.26
2013-7-17,77.4,74.8,72.4,76.0,73.9,72.0,99,97,92,30.09,29.99,5,1,13,1.46
2013-7-18,88.9,79.3,72.8,77.0,74.5,72.0,98,86,62,30.07,29.93,7,1,13,0.16
2013-7-19,91.9,82.0,73.6,78.0,75.1,72.0,97,81,55,30.00,29.87,8,2,13,0.00
2013-7-20,90.4,81.5,74.7,79.0,76.0,73.0,97,84,63,29.94,29.82,7,2,17,0.05
2013-7-21,91.8,84.2,77.7,80.0,77.7,76.0,96,82,62,29.91,29.84,11,4,18,0.00
2013-7-22,92.6,85.0,79.3,80.0,78.2,77.0,94,81,62,29.94,29.84,17,6,21,0.00
2013-7-23,94.5,84.7,77.9,79.0,77.1,75.0,93,79,56,29.95,29.85,16,5,20,0.00
2013-7-24,94.3,84.7,77.7,79.0,76.8,75.0,96,78,57,29.93,29.82,10,4,20,0.00
2013-7-25,95.9,84.3,74.9,80.0,76.6,73.0,97,79,53,29.97,29.91,11,3,19,0.00
2013-7-26,96.4,85.0,76.9,80.0,77.0,75.0,95,78,56,29.97,29.85,12,5,19,0.00
2013-7-27,100.8,86.1,78.9,78.0,76.3,73.0,92,74,43,29.91,29.76,11,4,18,0.00
2013-7-28,95.6,85.7,78.2,78.0,77.1,75.0,94,77,55,29.89,29.81,18,5,21,0.00
2013-7-29,92.2,84.3,78.0,78.0,76.8,75.0,95,79,58,30.00,29.88,18,6,22,0.00
2013-7-30,95.0,84.9,78.5,79.0,77.1,76.0,95,79,54,30.04,29.95,14,6,21,0.00
2013-7-31,97.0,84.4,73.7,79.0,75.4,72.0,97,77,46,30.04,29.91,8,3,16,0.00
2013-8-1,97.2,86.4,75.8,77.0,74.6,69.0,96,71,42,29.97,29.87,8,3,12,0.00
2013-8-2,97.0,85.0,75.7,78.0,74.7,69.0,96,74,41,29.94,29.84,9,3,17,0.00
2013-8-3,95.4,84.8,75.3,78.0,76.3,73.0,95,77,55,29.97,29.90,12,4,18,0.00
2013-8-4,96.1,86.1,78.8,80.0,76.3,71.0,94,74,52,29.99,29.91,12,4,21,0.00
2013-8-5,96.7,85.6,77.9,79.0,76.6,74.0,94,76,51,29.99,29.86,14,5,21,0.00
2013-8-6,99.2,86.6,78.4,78.0,76.3,71.0,94,74,43,29.91,29.79,17,6,24,0.00
2013-8-7,98.7,86.2,77.3,79.0,76.3,73.0,95,74,45,29.88,29.77,14,6,26,0.00
2013-8-8,98.4,85.8,77.5,79.0,76.7,74.0,93,76,46,29.86,29.77,14,5,18,0.00
2013-8-9,96.6,84.9,74.7,79.0,76.1,74.0,97,77,50,29.92,29.82,10,2,14,0.00
2013-8-10,94.2,83.4,77.2,80.0,77.3,76.0,96,83,59,29.96,29.89,7,2,15,0.10
2013-8-11,95.1,84.5,76.8,80.0,76.0,73.0,97,77,51,29.99,29.92,7,2,17,0.00
2013-8-12,95.2,84.3,74.2,78.0,75.5,73.0,96,77,52,30.01,29.91,13,3,18,0.00
2013-8-13,100.3,86.6,76.9,79.0,76.0,72.0,96,74,42,29.98,29.84,11,4,17,0.00
2013-8-14,102.2,86.3,75.9,78.0,74.7,67.0,96,72,33,29.94,29.82,9,3,17,0.00
2013-8-15,97.1,84.8,74.2,77.0,74.9,71.0,94,74,48,29.93,29.84,12,2,15,0.00
2013-8-16,98.5,86.8,78.8,79.0,75.6,68.0,93,72,38,29.95,29.82,9,2,14,0.10
2013-8-17,96.2,82.8,73.7,76.0,73.7,70.0,97,76,46,29.95,29.85,9,2,14,0.03
2013-8-18,95.5,82.8,73.5,77.0,70.4,60.0,97,70,37,29.97,29.91,6,2,16,0.00
2013-8-19,92.8,77.6,70.1,76.0,69.6,66.0,92,79,42,29.98,29.91,6,1,13,0.00
2013-8-22,95.3,87.6,79.2,77.0,75.5,73.0,87,69,49,29.95,29.88,7,2,10,0.00
2013-8-23,93.5,83.4,75.4,78.0,75.3,72.0,95,78,55,29.94,29.84,8,2,13,0.00
2013-8-24,94.8,84.8,75.2,78.0,75.8,73.0,96,76,51,29.95,29.88,15,3,15,0.00
2013-8-25,95.4,84.3,75.2,78.0,75.8,73.0,94,77,52,29.99,29.91,7,2,14,0.00
2013-8-26,86.3,79.1,76.6,77.0,75.6,74.0,96,89,73,30.03,29.95,7,1,17,0.19
2013-8-27,93.0,81.9,74.6,80.0,75.6,70.0,97,82,55,30.02,29.94,8,2,14,0.07
2013-8-28,94.0,82.9,72.7,78.0,75.2,72.0,97,79,55,30.03,29.94,9,2,13,0.00
2013-8-29,96.9,84.6,74.7,78.0,73.4,66.0,97,73,36,30.02,29.91,8,2,13,0.00
2013-8-30,97.0,85.1,74.4,78.0,73.2,69.0,95,70,42,29.98,29.86,9,2,17,0.00
2013-8-31,96.1,84.8,74.5,77.0,73.2,70.0,93,70,45,29.91,29.79,10,2,16,0.00
2013-9-1,97.8,85.7,74.8,78.0,74.7,70.0,95,72,40,29.88,29.77,10,3,17,0.00
2013-9-2,96.1,82.4,72.2,80.0,76.0,69.0,97,82,49,29.90,29.80,8,2,25,1.44
2013-9-3,95.7,84.0,73.8,78.0,74.4,71.0,97,75,46,29.96,29.84,6,2,9,0.00
2013-9-4,95.3,84.0,74.7,77.0,74.6,72.0,96,75,47,29.99,29.89,7,2,14,0.00
2013-9-5,93.8,83.8,76.5,79.0,75.7,74.0,93,78,53,30.01,29.93,10,2,16,0.00
2013-9-6,93.7,83.1,75.8,79.0,75.7,73.0,96,79,52,30.01,29.90,10,2,14,0.02
2013-9-7,90.8,81.6,75.9,78.0,76.0,74.0,97,84,63,29.96,29.85,6,2,12,0.23
2013-9-8,84.8,78.3,74.7,79.0,74.9,73.0,97,90,74,29.93,29.83,4,1,12,0.51
2013-9-9,89.3,80.0,73.2,79.0,75.1,72.0,98,86,62,29.89,29.82,10,2,18,0.97
2013-9-10,87.0,78.4,74.2,80.0,75.4,73.0,97,90,76,29.98,29.87,10,2,16,0.68
2013-9-11,84.5,78.3,74.8,79.0,75.9,74.0,98,92,74,30.00,29.92,6,1,15,0.27
2013-9-12,90.8,81.7,75.0,79.0,75.6,73.0,98,83,58,29.97,29.85,10,2,13,0.01
2013-9-13,91.2,81.7,73.9,78.0,74.7,73.0,97,81,58,29.89,29.77,9,2,14,0.00
2013-9-14,90.5,82.1,73.9,79.0,75.4,72.0,97,81,57,29.84,29.77,10,3,16,0.00
2013-9-15,88.5,80.8,76.1,80.0,76.7,75.0,97,87,71,29.89,29.80,13,2,16,0.42
2013-9-16,85.0,79.1,75.5,80.0,76.8,74.0,99,92,81,29.94,29.83,9,2,16,1.72
2013-9-17,89.3,81.7,76.2,81.0,77.0,75.0,98,86,67,29.95,29.85,8,2,15,0.46
2013-9-18,86.8,80.2,75.4,80.0,76.5,72.0,98,89,73,29.92,29.82,7,2,16,0.28
2013-9-19,90.6,81.9,75.6,80.0,77.2,75.0,98,86,63,29.86,29.76,7,2,13,0.01
2013-9-20,88.6,80.2,73.8,82.0,77.9,73.0,98,93,76,29.79,29.64,12,2,17,2.27
2013-9-21,78.3,74.0,71.2,74.0,71.1,67.0,99,91,78,29.79,29.68,12,4,20,0.11
2013-9-22,83.9,74.0,65.7,67.0,63.4,61.0,86,71,46,29.80,29.70,11,3,13,0.00
2013-9-23,88.6,75.5,64.5,73.0,68.2,61.0,95,79,52,29.77,29.68,11,2,11,0.00
2013-9-24,91.7,79.6,70.4,75.0,70.6,68.0,95,76,48,29.85,29.75,7,2,10,0.00
2013-9-25,94.4,81.0,70.3,74.0,69.6,59.0,95,73,31,29.84,29.73,5,1,9,0.00
2013-9-26,92.0,80.2,70.5,79.0,74.1,70.0,98,83,53,29.83,29.75,9,2,15,0.00
2013-9-27,91.8,83.5,77.0,80.0,77.8,75.0,95,83,65,29.84,29.76,14,4,20,0.00
2013-9-28,92.1,84.1,78.2,80.0,78.1,75.0,95,83,60,29.90,29.80,12,5,18,0.00
2013-9-29,88.3,80.1,75.8,77.0,75.2,73.0,96,86,65,29.96,29.83,6,1,11,0.00
2013-9-30,90.4,82.0,70.8,78.0,75.4,70.0,98,81,61,29.86,29.75,4,2,9,0.00
2013-10-1,92.1,82.6,76.0,79.0,77.2,75.0,97,85,62,29.85,29.75,12,3,15,0.00
2013-10-2,90.6,82.1,74.0,79.0,75.8,73.0,97,82,59,29.88,29.80,9,2,15,0.01
2013-10-3,89.9,81.8,75.1,77.0,74.5,71.0,96,80,54,29.88,29.79,8,3,17,0.00
2013-10-4,91.0,80.7,72.0,78.0,74.2,71.0,97,82,59,29.86,29.79,11,3,16,0.00
2013-10-5,89.8,80.1,70.5,78.0,74.7,70.0,98,84,64,29.88,29.79,6,2,13,0.00
2013-10-6,78.9,67.7,55.7,76.0,55.7,48.0,94,68,35,30.08,29.88,12,4,18,0.10
2013-10-7,85.6,69.5,55.3,57.0,51.1,43.0,89,57,23,30.12,29.99,9,2,13,0.00
2013-10-8,84.1,69.2,54.6,61.0,57.1,53.0,94,69,39,30.05,29.94,6,1,9,0.00
2013-10-9,85.7,73.0,60.3,68.0,64.1,58.0,97,76,49,30.00,29.89,10,1,12,0.00
2013-10-10,87.3,77.0,65.8,73.0,68.8,64.0,95,77,56,29.96,29.84,10,3,17,0.00
2013-10-11,91.2,82.0,76.3,78.0,75.9,72.0,93,82,63,29.87,29.77,11,4,20,0.00
2013-10-12,91.7,82.7,77.1,80.0,77.2,76.0,97,85,62,29.95,29.83,12,4,19,0.00
2013-10-13,88.4,80.7,75.9,79.0,75.9,73.0,98,86,62,30.05,29.92,11,3,16,0.40
2013-10-14,84.5,79.5,75.7,77.0,74.3,72.0,94,84,71,30.01,29.87,10,4,17,0.04
2013-10-15,88.2,79.0,70.6,75.0,71.6,69.0,97,80,57,29.92,29.81,12,2,14,0.00
2013-10-16,79.9,73.1,63.3,75.0,68.0,60.0,96,84,70,30.00,29.84,9,3,15,0.00
2013-10-17,81.8,69.7,63.0,64.0,60.5,56.0,89,73,52,30.05,29.90,11,3,13,0.00
2013-10-18,79.9,72.1,67.1,76.0,69.1,62.0,97,90,77,29.94,29.76,7,2,8,0.49
2013-10-19,73.6,65.8,55.0,70.0,57.9,48.0,97,78,42,30.09,29.86,15,4,23,0.00
2013-10-20,78.3,64.4,51.0,67.0,57.2,47.0,87,78,63,30.05,29.86,6,1,10,0.00
2013-10-21,83.5,72.1,68.1,75.0,69.0,65.0,98,90,75,29.92,29.81,5,1,10,1.51
2013-10-22,78.0,68.0,55.3,69.0,59.1,47.0,98,76,44,30.08,29.92,13,4,17,0.00
2013-10-23,81.3,64.2,49.9,56.0,50.2,46.0,89,64,29,30.15,30.05,5,1,7,0.00
2013-10-24,81.1,67.2,52.4,65.0,58.2,51.0,96,76,48,30.17,30.08,6,1,11,0.00
2013-10-25,82.0,71.2,59.8,71.0,65.0,59.0,98,82,64,30.23,30.13,7,2,17,0.00
2013-10-26,83.0,75.0,69.1,70.0,67.4,65.0,93,78,59,30.14,30.02,13,3,18,0.00
2013-10-27,86.8,74.4,64.9,75.0,68.8,64.0,99,84,51,30.04,29.92,5,1,13,0.00
2013-10-28,85.2,76.2,67.9,74.0,71.1,67.0,98,85,65,30.02,29.93,11,3,18,0.01
2013-10-29,76.1,75.7,75.5,73.0,72.8,72.0,90,90,89,30.00,29.98,9,6,15,0.00
2013-11-4,74.2,70.6,65.6,68.0,66.1,63.0,94,86,80,29.94,29.89,4,1,8,0.00
2013-11-5,82.5,73.4,64.0,75.0,70.0,63.0,98,89,74,29.94,29.86,10,3,16,0.13
2013-11-6,86.7,72.0,58.4,76.0,68.6,52.0,98,89,61,30.20,29.91,12,3,17,0.21
2013-11-7,67.5,59.2,54.2,52.0,43.8,35.0,79,59,32,30.36,30.20,11,4,15,0.00
2013-11-8,71.2,60.0,49.5,57.0,51.5,45.0,89,74,60,30.31,30.11,9,2,11,0.00
2013-11-9,74.3,65.3,55.9,65.0,60.2,54.0,93,84,71,30.12,30.05,6,1,8,0.00
2013-11-10,69.4,65.5,62.3,65.0,60.9,56.0,97,85,65,30.21,30.09,6,1,13,0.00
2013-11-11,79.0,68.3,62.5,66.0,60.1,55.0,92,75,57,30.20,30.07,6,1,8,0.00
2013-11-12,73.2,62.9,55.9,61.0,55.1,46.0,95,77,52,30.50,30.15,15,4,22,0.00
2013-11-13,57.9,48.7,40.6,47.0,34.8,26.0,86,61,30,30.57,30.35,11,3,15,0.00
2013-11-14,64.5,53.3,41.9,59.0,46.6,34.0,96,78,61,30.35,30.00,5,1,7,0.00
2013-11-15,80.4,64.7,51.8,66.0,59.3,51.0,98,84,55,29.99,29.84,8,2,13,0.00
2013-11-16,80.6,72.4,64.1,75.0,70.1,63.0,98,92,80,29.88,29.74,11,4,17,0.00
2013-11-17,87.8,76.3,71.4,75.0,72.0,70.0,97,87,63,29.88,29.75,8,3,16,0.00
2013-11-18,80.1,72.9,68.8,75.0,70.7,64.0,98,93,80,30.01,29.87,7,1,11,0.00
2013-11-19,71.9,69.0,65.7,64.0,60.6,58.0,81,74,68,30.03,29.94,8,3,13,0.00
2013-11-22,45.9,42.8,40.6,46.0,42.0,39.0,99,97,94,30.27,30.14,14,8,22,2.10
2013-11-23,45.4,42.5,39.5,43.0,40.8,39.0,97,94,85,30.37,30.27,14,7,22,0.00
2013-11-24,45.3,43.7,41.2,45.0,41.8,38.0,99,92,86,30.37,30.25,10,4,13,0.00
2013-11-25,43.9,41.2,39.1,43.0,40.3,38.0,98,96,90,30.24,30.00,12,6,17,0.00
2013-11-26,48.9,44.4,41.3,41.0,38.8,36.0,97,81,65,30.32,30.08,19,7,29,0.00
2013-11-27,52.3,35.9,40.4,37.0,2.8,-99.9,81,47,41,30.43,30.32,11,-218,16,0.00
2013-11-29,67.7,58.4,44.4,59.0,53.7,44.0,97,85,72,30.40,30.31,9,2,14,0.00
2013-11-30,73.6,61.2,49.2,63.0,56.5,48.0,97,85,64,30.32,30.15,6,1,12,0.00
2013-12-1,77.2,64.4,52.7,66.0,60.3,52.0,99,87,65,30.16,29.94,6,1,12,0.00
2013-12-2,80.1,65.0,55.2,68.0,61.7,54.0,98,90,61,29.94,29.69,5,1,9,0.01
2013-12-3,83.3,68.7,59.9,70.0,64.6,59.0,98,88,58,29.72,29.59,13,2,13,0.01
2013-12-4,82.4,72.0,65.3,73.0,68.9,64.0,97,90,71,29.75,29.65,7,3,13,0.00
2013-12-5,78.5,62.4,42.1,73.0,59.2,37.0,98,89,79,29.96,29.73,12,4,16,0.00
2013-12-6,46.6,38.4,35.4,38.0,27.8,-99.9,93,76,69,30.34,29.96,15,-45,20,0.00
2013-12-7,35.3,27.2,32.8,31.0,5.0,-99.9,92,69,79,30.41,30.24,11,-185,16,0.00
2013-12-8,44.8,32.3,31.6,44.0,10.8,-99.9,97,74,87,30.24,30.02,8,-198,9,0.00
2013-12-9,51.9,37.1,40.1,52.0,16.0,-99.9,99,78,97,30.25,29.98,11,-205,17,0.04
2013-12-10,47.5,34.4,35.9,40.0,7.7,-99.9,98,58,51,30.44,30.26,12,-188,20,0.00
2013-12-11,53.8,41.5,44.5,41.0,14.5,-99.9,76,53,55,30.45,30.27,6,-166,8,0.00
2013-12-12,55.2,38.6,44.9,42.0,5.6,-99.9,77,49,55,30.52,30.31,12,-240,12,0.00
2013-12-13,66.6,44.8,46.8,57.0,17.6,-99.9,86,61,68,30.30,29.84,6,-217,10,0.00
2013-12-14,69.1,56.6,43.1,53.0,47.1,40.0,92,73,40,30.29,29.85,16,5,23,0.00
2013-12-15,59.5,38.3,32.7,39.0,12.2,-99.9,92,57,36,30.40,30.26,9,-167,10,0.00
2013-12-16,66.4,42.0,32.5,47.0,14.7,-99.9,97,57,31,30.31,30.19,5,-178,7,0.00
2013-12-17,48.7,27.5,38.2,49.0,-7.2,-99.9,99,64,95,30.29,30.22,2,-342,3,0.00
2013-12-21,76.5,67.0,58.0,70.0,59.0,55.0,92,76,58,29.77,29.57,11,2,17,0.01
2013-12-22,71.6,60.1,46.5,56.0,47.0,37.0,94,66,34,30.30,29.77,10,4,20,0.00
2013-12-23,59.2,45.2,36.3,37.0,31.2,27.0,82,62,29,30.49,30.30,10,3,16,0.00
2013-12-24,61.8,47.6,32.7,49.0,40.0,29.0,92,76,47,30.49,30.23,6,1,11,0.00
2013-12-25,68.3,55.3,45.7,59.0,52.2,44.0,96,90,69,30.28,30.16,5,1,8,0.07
2013-12-26,56.6,52.1,49.1,56.0,49.7,47.0,96,92,80,30.34,30.25,9,4,12,0.10
2013-12-27,55.5,51.2,48.9,52.0,49.4,48.0,98,93,82,30.36,30.27,7,2,7,0.12
2013-12-28,61.4,51.1,42.4,49.0,43.7,38.0,96,78,47,30.26,30.02,6,1,7,0.01
2013-12-29,67.1,54.6,39.6,55.0,47.5,38.0,95,79,53,30.09,29.95,6,1,10,0.00
2013-12-30,57.8,43.9,40.7,52.0,36.7,33.0,84,76,68,30.36,30.07,15,6,22,0.01
2013-12-31,44.8,43.2,41.5,43.0,37.3,33.0,94,80,66,30.42,30.24,9,2,10,0.07
2014-1-1,56.9,50.7,44.4,56.0,48.9,42.0,97,93,84,30.23,29.98,5,1,6,0.01
2014-1-2,57.6,50.1,38.5,56.0,39.1,29.0,97,68,43,30.42,30.02,18,5,22,0.00